createdAt,value
2022-11-20T00:00:58.190Z,1.96
2022-11-20T00:04:06.104Z,1.98
2022-11-20T00:07:13.741Z,1.99
2022-11-20T00:10:21.733Z,2.00
2022-11-20T00:13:28.226Z,2.00
2022-11-20T00:16:37.669Z,2.00
2022-11-20T00:19:41.793Z,2.01
2022-11-20T00:22:47.592Z,2.01
2022-11-20T00:25:53.936Z,2.02
2022-11-20T00:29:09.023Z,1.99
2022-11-20T00:32:15.410Z,1.98
2022-11-20T00:35:22.923Z,1.90
2022-11-20T00:38:30.684Z,1.88
2022-11-20T00:41:37.302Z,1.86
2022-11-20T00:44:43.806Z,1.88
2022-11-20T00:47:50.510Z,1.84
2022-11-20T00:50:57.915Z,1.81
2022-11-20T00:54:05.591Z,1.77
2022-11-20T00:57:11.454Z,1.71
2022-11-20T01:00:16.466Z,1.69
2022-11-20T01:03:26.825Z,1.68
2022-11-20T01:06:35.582Z,1.69
2022-11-20T01:09:42.563Z,1.68
2022-11-20T01:12:48.397Z,1.72
2022-11-20T01:15:56.240Z,1.74
2022-11-20T01:19:05.107Z,1.79
2022-11-20T01:22:11.438Z,1.77
2022-11-20T01:25:17.655Z,1.76
2022-11-20T01:28:23.102Z,1.79
2022-11-20T01:31:36.303Z,1.79
2022-11-20T01:34:43.142Z,1.77
2022-11-20T01:37:48.710Z,1.74
2022-11-20T01:40:56.524Z,1.74
2022-11-20T01:44:02.451Z,1.81
2022-11-20T01:47:16.439Z,1.83
2022-11-20T01:50:32.431Z,1.81
2022-11-20T01:53:41.386Z,1.73
2022-11-20T01:56:50.919Z,1.72
2022-11-20T02:00:00.139Z,1.73
2022-11-20T02:03:13.964Z,1.80
2022-11-20T02:06:37.260Z,1.82
2022-11-20T02:09:43.379Z,1.85
2022-11-20T02:13:06.927Z,1.84
2022-11-20T02:16:13.192Z,1.83
2022-11-20T02:19:22.884Z,1.84
2022-11-20T02:22:37.158Z,1.82
2022-11-20T02:25:44.160Z,1.80
2022-11-20T02:28:51.647Z,1.79
2022-11-20T02:31:58.867Z,1.82
2022-11-20T02:35:05.072Z,1.83
2022-11-20T02:38:13.467Z,1.84
2022-11-20T02:41:19.676Z,1.81
2022-11-20T02:44:25.982Z,1.82
2022-11-20T02:47:31.211Z,1.86
2022-11-20T02:50:37.571Z,1.92
2022-11-20T02:53:42.940Z,1.98
2022-11-20T02:56:49.135Z,2.01
2022-11-20T02:59:56.150Z,2.01
2022-11-20T03:03:02.316Z,2.03
2022-11-20T03:06:09.000Z,2.04
2022-11-20T03:09:15.228Z,2.04
2022-11-20T03:12:22.384Z,2.03
2022-11-20T03:15:28.640Z,2.05
2022-11-20T03:18:35.611Z,2.10
2022-11-20T03:21:41.985Z,2.14
2022-11-20T03:24:47.314Z,2.22
2022-11-20T03:27:53.908Z,2.30
2022-11-20T03:31:01.599Z,2.34
2022-11-20T03:34:08.257Z,2.30
2022-11-20T03:37:14.838Z,2.21
2022-11-20T03:40:22.782Z,2.11
2022-11-20T03:43:29.329Z,2.10
2022-11-20T03:46:34.600Z,2.09
2022-11-20T03:49:40.207Z,2.14
2022-11-20T03:52:45.926Z,2.19
2022-11-20T03:55:51.531Z,2.25
2022-11-20T03:58:58.070Z,2.31
2022-11-20T04:02:04.484Z,2.34
2022-11-20T04:05:09.669Z,2.34
2022-11-20T04:08:16.329Z,2.37
2022-11-20T04:11:36.587Z,2.41
2022-11-20T04:14:42.284Z,2.45
2022-11-20T04:17:49.119Z,2.47
2022-11-20T04:20:55.135Z,2.44
2022-11-20T04:24:03.939Z,2.44
2022-11-20T04:27:10.548Z,2.47
2022-11-20T04:30:18.455Z,2.50
2022-11-20T04:33:23.281Z,2.49
2022-11-20T04:36:33.701Z,2.40
2022-11-20T04:39:38.645Z,2.31
2022-11-20T04:42:44.998Z,2.28
2022-11-20T04:45:50.975Z,2.29
2022-11-20T04:48:57.755Z,2.35
2022-11-20T04:52:04.293Z,2.39
2022-11-20T04:55:10.447Z,2.42
2022-11-20T04:58:17.203Z,2.45
2022-11-20T05:01:28.467Z,2.51
2022-11-20T05:04:35.531Z,2.43
2022-11-20T05:07:42.168Z,2.39
2022-11-20T05:10:49.185Z,2.31
2022-11-20T05:13:55.838Z,2.22
2022-11-20T05:17:02.595Z,2.21
2022-11-20T05:20:08.634Z,2.20
2022-11-20T05:23:17.771Z,2.19
2022-11-20T05:26:32.848Z,2.23
2022-11-20T05:29:39.556Z,2.15
2022-11-20T05:32:46.113Z,2.11
2022-11-20T05:35:54.439Z,2.12
2022-11-20T05:39:03.248Z,2.13
2022-11-20T05:42:26.275Z,2.20
2022-11-20T05:45:33.168Z,2.23
2022-11-20T05:48:39.253Z,2.23
2022-11-20T05:51:45.641Z,2.25
2022-11-20T05:54:52.149Z,2.26
2022-11-20T05:57:57.436Z,2.20
2022-11-20T06:01:02.880Z,2.23
2022-11-20T06:04:10.237Z,2.29
2022-11-20T06:07:20.015Z,2.30
2022-11-20T06:10:26.991Z,2.32
2022-11-20T06:13:39.189Z,2.33
2022-11-20T06:16:43.221Z,2.32
2022-11-20T06:19:51.497Z,2.31
2022-11-20T06:22:58.083Z,2.33
2022-11-20T06:26:04.288Z,2.34
2022-11-20T06:29:10.338Z,2.32
2022-11-20T06:32:18.968Z,2.36
2022-11-20T06:35:25.530Z,2.42
2022-11-20T06:38:30.734Z,2.49
2022-11-20T06:41:37.570Z,2.54
2022-11-20T06:44:42.759Z,2.57
2022-11-20T06:47:48.644Z,2.62
2022-11-20T06:50:55.713Z,2.63
2022-11-20T06:54:02.314Z,2.60
2022-11-20T06:57:09.197Z,2.60
2022-11-20T07:00:15.167Z,2.60
2022-11-20T07:03:24.200Z,2.63
2022-11-20T07:06:30.538Z,2.67
2022-11-20T07:09:38.347Z,2.67
2022-11-20T07:12:44.777Z,2.67
2022-11-20T07:15:50.196Z,2.64
2022-11-20T07:18:57.100Z,2.64
2022-11-20T07:22:05.182Z,2.64
2022-11-20T07:25:11.068Z,2.63
2022-11-20T07:28:16.733Z,2.61
2022-11-20T07:31:26.513Z,2.59
2022-11-20T07:34:32.100Z,2.51
2022-11-20T07:37:38.540Z,2.45
2022-11-20T07:40:44.483Z,2.41
2022-11-20T07:43:50.772Z,2.42
2022-11-20T07:46:57.358Z,2.44
2022-11-20T07:50:04.414Z,2.47
2022-11-20T07:53:20.360Z,2.48
2022-11-20T07:56:27.823Z,2.48
2022-11-20T07:59:34.093Z,2.50
2022-11-20T08:02:39.188Z,2.52
2022-11-20T08:05:45.716Z,2.48
2022-11-20T08:08:51.069Z,2.49
2022-11-20T08:12:19.760Z,2.52
2022-11-20T08:15:29.500Z,2.56
2022-11-20T08:18:34.737Z,2.61
2022-11-20T08:21:42.646Z,2.61
2022-11-20T08:24:48.722Z,2.63
2022-11-20T08:28:00.139Z,2.68
2022-11-20T08:31:05.973Z,2.69
2022-11-20T08:34:17.613Z,2.70
2022-11-20T08:37:24.398Z,2.70
2022-11-20T08:40:31.150Z,2.72
2022-11-20T08:43:36.958Z,2.76
2022-11-20T08:46:45.992Z,2.73
2022-11-20T08:49:52.795Z,2.70
2022-11-20T08:53:01.279Z,2.69
2022-11-20T08:56:07.722Z,2.70
2022-11-20T08:59:43.442Z,2.70
2022-11-20T09:02:23.712Z,2.70
2022-11-20T09:05:29.620Z,2.68
2022-11-20T09:08:35.727Z,2.70
2022-11-20T09:11:42.048Z,2.70
2022-11-20T09:14:54.879Z,2.75
2022-11-20T09:18:00.760Z,2.80
2022-11-20T09:21:11.961Z,2.83
2022-11-20T09:24:18.759Z,2.83
2022-11-20T09:27:30.719Z,2.79
2022-11-20T09:30:39.652Z,2.80
2022-11-20T09:33:46.065Z,2.76
2022-11-20T09:36:54.519Z,2.71
2022-11-20T09:40:00.768Z,2.69
2022-11-20T09:43:33.788Z,2.71
2022-11-20T09:46:49.206Z,2.73
2022-11-20T09:50:07.980Z,2.80
2022-11-20T09:53:29.599Z,2.86
2022-11-20T09:56:36.743Z,2.92
2022-11-20T10:00:01.372Z,2.98
2022-11-20T10:03:29.957Z,3.06
2022-11-20T10:06:59.636Z,3.13
2022-11-20T10:10:01.957Z,3.19
2022-11-20T10:13:43.644Z,3.28
2022-11-20T10:17:06.379Z,3.30
2022-11-20T10:20:50.973Z,3.35
2022-11-20T10:24:34.076Z,3.43
2022-11-20T10:28:01.581Z,3.48
2022-11-20T10:31:23.858Z,3.50
2022-11-20T10:34:51.133Z,3.48
2022-11-20T10:38:01.637Z,3.51
2022-11-20T10:41:35.842Z,3.55
2022-11-20T10:45:05.861Z,3.56
2022-11-20T10:48:31.139Z,3.55
2022-11-20T10:51:49.436Z,3.44
2022-11-20T10:55:43.647Z,3.45
2022-11-20T10:58:56.735Z,3.41
2022-11-20T11:02:05.784Z,3.35
2022-11-20T11:05:14.743Z,3.29
2022-11-20T11:08:28.787Z,3.26
2022-11-20T11:11:45.704Z,3.17
2022-11-20T11:15:04.697Z,3.05
2022-11-20T11:18:10.947Z,2.92
2022-11-20T11:21:20.725Z,2.79
2022-11-20T11:24:43.237Z,2.79
2022-11-20T11:27:51.267Z,2.83
2022-11-20T11:30:58.069Z,2.81
2022-11-20T11:34:03.709Z,2.81
2022-11-20T11:37:13.387Z,2.84
2022-11-20T11:40:26.541Z,2.85
2022-11-20T11:43:56.102Z,2.84
2022-11-20T11:47:13.142Z,2.83
2022-11-20T11:50:32.422Z,2.87
2022-11-20T11:53:39.616Z,2.89
2022-11-20T11:56:47.836Z,2.91
2022-11-20T12:00:31.131Z,2.87
2022-11-20T12:03:49.013Z,2.85
2022-11-20T12:06:58.672Z,2.83
2022-11-20T12:10:07.335Z,2.81
2022-11-20T12:13:20.179Z,2.80
2022-11-20T12:16:29.123Z,2.79
2022-11-20T12:19:36.544Z,2.76
2022-11-20T12:23:07.343Z,2.74
2022-11-20T12:26:14.933Z,2.74
2022-11-20T12:29:37.049Z,2.75
2022-11-20T12:32:56.562Z,2.74
2022-11-20T12:36:31.252Z,2.69
2022-11-20T12:39:57.620Z,2.61
2022-11-20T12:43:57.801Z,2.57
2022-11-20T12:47:10.211Z,2.54
2022-11-20T12:51:08.216Z,2.54
2022-11-20T12:54:06.873Z,2.52
2022-11-20T12:57:41.807Z,2.49
2022-11-20T13:00:48.700Z,2.49
2022-11-20T13:04:04.205Z,2.48
2022-11-20T13:07:09.302Z,2.46
2022-11-20T13:10:15.048Z,2.45
2022-11-20T13:13:50.438Z,2.43
2022-11-20T13:17:16.953Z,2.38
2022-11-20T13:20:27.183Z,2.40
2022-11-20T13:23:42.883Z,2.38
2022-11-20T13:26:51.301Z,2.37
2022-11-20T13:30:05.303Z,2.40
2022-11-20T13:33:15.734Z,2.41
2022-11-20T13:36:24.936Z,2.41
2022-11-20T13:39:44.427Z,2.42
2022-11-20T13:42:53.665Z,2.42
2022-11-20T13:46:01.956Z,2.46
2022-11-20T13:49:08.817Z,2.49
2022-11-20T13:53:11.875Z,2.52
2022-11-20T13:56:28.719Z,2.57
2022-11-20T14:00:02.159Z,2.58
2022-11-20T14:03:51.086Z,2.60
2022-11-20T14:06:44.701Z,2.61
2022-11-20T14:09:50.731Z,2.65
2022-11-20T14:12:59.304Z,2.67
2022-11-20T14:16:08.761Z,2.68
2022-11-20T14:19:15.725Z,2.68
2022-11-20T14:22:41.587Z,2.68
2022-11-20T14:25:48.501Z,2.69
2022-11-20T14:28:53.791Z,2.72
2022-11-20T14:32:02.358Z,2.74
2022-11-20T14:35:08.581Z,2.77
2022-11-20T14:38:14.598Z,2.78
2022-11-20T14:41:26.425Z,2.80
2022-11-20T14:44:32.977Z,2.81
2022-11-20T14:47:41.035Z,2.82
2022-11-20T14:50:47.040Z,2.84
2022-11-20T14:53:54.230Z,2.84
2022-11-20T14:57:14.957Z,2.84
2022-11-20T15:00:31.240Z,2.80
2022-11-20T15:03:36.785Z,2.80
2022-11-20T15:06:44.112Z,2.77
2022-11-20T15:09:50.036Z,2.72
2022-11-20T15:13:12.757Z,2.67
2022-11-20T15:16:19.964Z,2.69
2022-11-20T15:19:29.614Z,2.64
2022-11-20T15:22:37.823Z,2.66
2022-11-20T15:25:44.949Z,2.67
2022-11-20T15:28:58.590Z,2.64
2022-11-20T15:32:07.918Z,2.67
2022-11-20T15:35:12.074Z,2.71
2022-11-20T15:38:17.137Z,2.72
2022-11-20T15:41:23.825Z,2.75
2022-11-20T15:44:29.770Z,2.76
2022-11-20T15:47:42.976Z,2.79
2022-11-20T15:51:04.601Z,2.82
2022-11-20T15:54:11.072Z,2.85
2022-11-20T15:57:17.269Z,2.87
2022-11-20T16:00:24.596Z,2.88
2022-11-20T16:03:31.025Z,2.90
2022-11-20T16:06:37.197Z,2.92
2022-11-20T16:09:43.767Z,2.93
2022-11-20T16:13:08.116Z,2.97
2022-11-20T16:16:18.554Z,2.96
2022-11-20T16:19:28.913Z,2.97
2022-11-20T16:22:36.125Z,2.99
2022-11-20T16:25:42.364Z,2.99
2022-11-20T16:28:49.132Z,2.97
2022-11-20T16:31:56.714Z,2.97
2022-11-20T16:35:02.514Z,2.99
2022-11-20T16:38:07.731Z,3.00
2022-11-20T16:41:20.999Z,3.01
2022-11-20T16:44:27.973Z,3.04
2022-11-20T16:47:36.802Z,3.03
2022-11-20T16:50:44.767Z,3.05
2022-11-20T16:53:49.998Z,3.04
2022-11-20T16:56:55.594Z,3.06
2022-11-20T17:00:03.528Z,3.08
2022-11-20T17:03:07.967Z,3.08
2022-11-20T17:06:13.391Z,3.06
2022-11-20T17:09:20.891Z,3.06
2022-11-20T17:12:27.077Z,2.94
2022-11-20T17:15:35.518Z,2.91
2022-11-20T17:18:44.060Z,2.90
2022-11-20T17:21:51.506Z,2.86
2022-11-20T17:24:58.983Z,2.87
2022-11-20T17:28:04.961Z,2.91
2022-11-20T17:31:17.017Z,2.90
2022-11-20T17:34:26.312Z,2.93
2022-11-20T17:37:32.420Z,2.93
2022-11-20T17:40:40.559Z,2.96
2022-11-20T17:43:49.619Z,2.91
2022-11-20T17:46:56.435Z,2.89
2022-11-20T17:50:03.300Z,2.88
2022-11-20T17:53:10.158Z,2.92
2022-11-20T17:56:33.385Z,2.93
2022-11-20T17:59:40.454Z,2.97
2022-11-20T18:02:47.220Z,2.98
2022-11-20T18:05:52.734Z,3.02
2022-11-20T18:08:59.396Z,3.03
2022-11-20T18:12:04.785Z,3.06
2022-11-20T18:15:10.408Z,3.08
2022-11-20T18:18:16.801Z,2.99
2022-11-20T18:21:27.218Z,2.98
2022-11-20T18:24:34.895Z,2.94
2022-11-20T18:27:44.493Z,2.92
2022-11-20T18:30:51.460Z,2.88
2022-11-20T18:33:59.291Z,2.86
2022-11-20T18:37:05.806Z,2.86
2022-11-20T18:40:12.852Z,2.85
2022-11-20T18:43:37.430Z,2.89
2022-11-20T18:46:41.827Z,2.93
2022-11-20T18:49:47.648Z,2.99
2022-11-20T18:52:55.578Z,3.03
2022-11-20T18:56:02.618Z,3.06
2022-11-20T18:59:08.953Z,3.08
2022-11-20T19:02:16.165Z,3.06
2022-11-20T19:05:24.591Z,3.07
2022-11-20T19:08:30.653Z,3.03
2022-11-20T19:11:37.652Z,3.00
2022-11-20T19:14:45.116Z,3.01
2022-11-20T19:17:50.258Z,3.03
2022-11-20T19:20:56.162Z,3.07
2022-11-20T19:24:07.588Z,3.08
2022-11-20T19:27:15.457Z,3.08
2022-11-20T19:30:24.040Z,3.09
2022-11-20T19:33:32.269Z,3.09
2022-11-20T19:36:44.775Z,3.12
2022-11-20T19:39:49.701Z,3.13
2022-11-20T19:42:57.080Z,3.10
2022-11-20T19:46:03.489Z,3.09
2022-11-20T19:49:09.690Z,3.09
2022-11-20T19:52:15.420Z,3.11
2022-11-20T19:55:21.462Z,3.11
2022-11-20T19:58:26.636Z,3.14
2022-11-20T20:01:34.941Z,3.17
2022-11-20T20:04:42.960Z,3.16
2022-11-20T20:07:48.747Z,3.18
2022-11-20T20:10:59.304Z,3.19
2022-11-20T20:14:06.529Z,3.20
2022-11-20T20:17:14.858Z,3.20
2022-11-20T20:20:22.548Z,3.17
2022-11-20T20:23:28.967Z,3.15
2022-11-20T20:26:38.702Z,3.14
2022-11-20T20:29:46.920Z,3.14
2022-11-20T20:32:56.503Z,3.17
2022-11-20T20:36:02.953Z,3.18
2022-11-20T20:39:11.046Z,3.19
2022-11-20T20:42:18.627Z,3.18
2022-11-20T20:45:26.515Z,3.17
2022-11-20T20:48:35.219Z,3.20
2022-11-20T20:51:41.867Z,3.23
2022-11-20T20:54:48.942Z,3.24
2022-11-20T20:57:56.855Z,3.22
2022-11-20T21:01:03.050Z,3.22
2022-11-20T21:04:11.223Z,3.24
2022-11-20T21:07:18.461Z,3.27
2022-11-20T21:10:24.784Z,3.31
2022-11-20T21:13:31.736Z,3.35
2022-11-20T21:16:40.021Z,3.39
2022-11-20T21:19:47.065Z,3.41
2022-11-20T21:22:53.007Z,3.35
2022-11-20T21:26:00.572Z,3.27
2022-11-20T21:29:09.878Z,3.20
2022-11-20T21:32:15.244Z,3.19
2022-11-20T21:35:21.535Z,3.15
2022-11-20T21:38:26.321Z,3.07
2022-11-20T21:41:35.957Z,3.02
2022-11-20T21:44:42.703Z,2.98
2022-11-20T21:47:50.548Z,2.96
2022-11-20T21:51:00.657Z,2.99
2022-11-20T21:54:07.268Z,3.09
2022-11-20T21:57:14.021Z,3.15
2022-11-20T22:00:20.764Z,3.23
2022-11-20T22:03:26.792Z,3.24
2022-11-20T22:06:34.618Z,3.20
2022-11-20T22:09:42.113Z,3.19
2022-11-20T22:12:49.962Z,3.19
2022-11-20T22:16:02.810Z,3.23
2022-11-20T22:19:06.486Z,3.28
2022-11-20T22:22:13.298Z,3.34
2022-11-20T22:25:21.835Z,3.32
2022-11-20T22:28:27.382Z,3.33
2022-11-20T22:31:35.714Z,3.34
2022-11-20T22:34:41.724Z,3.37
2022-11-20T22:37:47.815Z,3.41
2022-11-20T22:40:55.625Z,3.39
2022-11-20T22:44:03.795Z,3.33
2022-11-20T22:47:11.496Z,3.23
2022-11-20T22:50:18.674Z,3.23
2022-11-20T22:53:24.370Z,3.24
2022-11-20T22:56:30.640Z,3.30
2022-11-20T22:59:36.834Z,3.37
2022-11-20T23:02:42.783Z,3.41
2022-11-20T23:05:49.821Z,3.44
2022-11-20T23:08:56.965Z,3.42
2022-11-20T23:12:06.384Z,3.41
2022-11-20T23:15:12.620Z,3.35
2022-11-20T23:18:20.081Z,3.27
2022-11-20T23:21:33.625Z,3.26
2022-11-20T23:24:41.997Z,3.28
2022-11-20T23:27:48.157Z,3.31
2022-11-20T23:30:55.282Z,3.33
2022-11-20T23:34:03.069Z,3.34
2022-11-20T23:37:09.460Z,3.33
2022-11-20T23:40:15.504Z,3.35
2022-11-20T23:43:24.855Z,3.28
2022-11-20T23:46:32.005Z,3.26
2022-11-20T23:49:37.800Z,3.31
2022-11-20T23:52:44.572Z,3.35
2022-11-20T23:55:51.053Z,3.34
2022-11-20T23:58:56.802Z,3.36
